Time;durP1;ratioP1;P1;durP2;ratioP2;P2;SDS_P1;SDS_P2;PMS_P1;PMS_P2;Temp;Humidity;BMP_temperature;BMP_pressure;BME280_temperature;BME280_humidity;BME280_pressure;Samples;Min_cycle;Max_cycle;Signal;HPM_P1;HPM_P2
2022/07/25 00:01:42;;;;;;;10.70;4.85;;;;;;;16.61;51.78;98735.41;5087364;28;20052;-80
2022/07/25 00:04:07;;;;;;;9.98;5.15;;;;;;;16.61;51.81;98736.19;5091176;28;20047;-81
2022/07/25 00:06:34;;;;;;;9.25;4.13;;;;;;;16.59;51.79;98730.19;5090809;28;20077;-80
2022/07/25 00:09:00;;;;;;;4.55;3.40;;;;;;;16.59;51.74;98732.16;5090643;28;20028;-80
2022/07/25 00:11:25;;;;;;;4.50;3.00;;;;;;;16.58;51.35;98720.25;5090870;28;20028;-79
2022/07/25 00:13:51;;;;;;;7.93;4.15;;;;;;;16.58;51.39;98734.09;5091090;28;20028;-79
2022/07/25 00:16:16;;;;;;;7.15;4.63;;;;;;;16.53;51.51;98737.03;5089914;28;20464;-80
2022/07/25 00:18:42;;;;;;;11.80;5.90;;;;;;;16.50;51.75;98730.19;5089804;28;20024;-78
2022/07/25 00:21:08;;;;;;;9.13;5.03;;;;;;;16.48;51.95;98737.22;5090264;28;20048;-77
2022/07/25 00:23:33;;;;;;;8.95;4.90;;;;;;;16.47;51.95;98730.06;5090129;28;20051;-78
2022/07/25 00:25:59;;;;;;;7.38;3.97;;;;;;;16.46;51.71;98729.22;5089397;28;20063;-78
2022/07/25 00:28:24;;;;;;;6.45;3.92;;;;;;;16.42;52.05;98728.25;5089862;28;20615;-77
2022/07/25 00:30:49;;;;;;;5.55;3.80;;;;;;;16.42;52.03;98719.97;5090223;28;20032;-78
2022/07/25 00:33:15;;;;;;;5.95;3.75;;;;;;;16.40;51.99;98716.69;5089721;28;20024;-78
2022/07/25 00:35:40;;;;;;;5.65;4.00;;;;;;;16.38;52.15;98713.44;5072745;28;20031;-78
2022/07/25 00:38:06;;;;;;;5.75;3.75;;;;;;;16.35;52.34;98714.94;5093992;28;20043;-78
2022/07/25 00:40:31;;;;;;;11.00;4.43;;;;;;;16.34;52.16;98718.84;5093729;28;20084;-77
2022/07/25 00:42:57;;;;;;;9.98;5.18;;;;;;;16.34;52.63;98713.31;5093523;28;20035;-78
2022/07/25 00:45:22;;;;;;;11.10;4.85;;;;;;;16.32;52.22;98712.81;5093705;28;20059;-78
2022/07/25 00:47:47;;;;;;;11.45;5.35;;;;;;;16.31;52.28;98716.72;5093613;28;21520;-77
2022/07/25 00:50:13;;;;;;;10.98;4.88;;;;;;;16.29;52.53;98715.44;5093546;28;20020;-77
2022/07/25 00:52:38;;;;;;;7.60;4.15;;;;;;;16.27;52.26;98721.28;5057907;28;20457;-78
2022/07/25 00:55:04;;;;;;;10.10;4.47;;;;;;;16.26;52.14;98718.88;5092864;28;20039;-77
2022/07/25 00:57:30;;;;;;;12.30;4.35;;;;;;;16.25;52.74;98717.25;5092826;28;20058;-78
2022/07/25 00:59:55;;;;;;;10.15;4.97;;;;;;;16.24;52.41;98721.16;5093104;28;20016;-77
2022/07/25 01:02:21;;;;;;;4.95;3.55;;;;;;;16.24;52.99;98707.31;5093163;28;20047;-77
2022/07/25 01:04:46;;;;;;;6.28;3.90;;;;;;;16.22;52.29;98711.22;5093477;28;20020;-78
2022/07/25 01:07:12;;;;;;;4.97;3.50;;;;;;;16.21;52.48;98708.75;5093200;28;20145;-78
2022/07/25 01:09:38;;;;;;;6.28;4.43;;;;;;;16.18;52.41;98706.66;5093514;28;20084;-77
2022/07/25 01:12:04;;;;;;;5.07;3.53;;;;;;;16.16;52.74;98703.41;5093116;28;20426;-77
2022/07/25 01:14:29;;;;;;;5.38;3.70;;;;;;;16.14;52.63;98708.44;5090379;28;20079;-77
2022/07/25 01:16:55;;;;;;;6.45;3.47;;;;;;;16.12;52.78;98699.66;5093113;28;20507;-78
2022/07/25 01:19:20;;;;;;;4.82;3.35;;;;;;;16.06;52.86;98699.84;5092805;28;20564;-77
2022/07/25 01:21:46;;;;;;;5.88;3.53;;;;;;;16.02;52.88;98693.34;5092554;28;20079;-77
2022/07/25 01:24:11;;;;;;;4.57;3.15;;;;;;;15.97;53.08;98701.78;5092701;28;20114;-77
2022/07/25 01:26:37;;;;;;;4.65;3.33;;;;;;;15.93;53.17;98698.06;5092782;28;20051;-78
2022/07/25 01:29:04;;;;;;;5.75;3.70;;;;;;;15.91;53.44;98697.56;5092670;28;20107;-78
2022/07/25 01:31:29;;;;;;;5.53;3.65;;;;;;;15.90;53.79;98688.44;5074317;28;20035;-77
2022/07/25 01:33:55;;;;;;;4.75;3.50;;;;;;;15.89;53.67;98688.78;5092510;28;20012;-78
2022/07/25 01:36:20;;;;;;;5.20;3.40;;;;;;;15.86;54.01;98704.09;5092870;28;20049;-78
2022/07/25 01:38:46;;;;;;;4.80;3.63;;;;;;;15.78;53.52;98688.28;5092411;28;20107;-77
2022/07/25 01:41:11;;;;;;;4.40;3.42;;;;;;;15.75;54.03;98692.47;5074216;28;20030;-78
2022/07/25 01:43:37;;;;;;;5.32;3.50;;;;;;;15.71;53.92;98685.97;5092278;28;20031;-77
2022/07/25 01:46:02;;;;;;;4.90;3.65;;;;;;;15.70;53.98;98691.84;5092455;28;20473;-79
2022/07/25 01:48:28;;;;;;;6.35;3.72;;;;;;;15.65;54.11;98687.28;5089009;28;20641;-78
2022/07/25 01:50:54;;;;;;;6.57;4.25;;;;;;;15.62;54.13;98685.97;5091237;28;20028;-78
2022/07/25 01:53:19;;;;;;;5.25;3.90;;;;;;;15.60;54.52;98681.94;5092379;28;20039;-78
2022/07/25 01:55:46;;;;;;;5.72;4.38;;;;;;;15.52;54.49;98686.28;5091781;28;20388;-78
2022/07/25 01:58:11;;;;;;;6.18;4.38;;;;;;;15.48;54.66;98677.84;5092578;28;20020;-78
2022/07/25 02:00:37;;;;;;;6.25;4.22;;;;;;;15.47;54.42;98675.41;5092156;28;20040;-78
2022/07/25 02:05:46;;;;;;;6.18;4.50;;;;;;;15.42;54.84;98679.13;5092046;28;20441;-77
2022/07/25 02:08:12;;;;;;;6.75;4.45;;;;;;;15.38;54.85;98680.91;5092376;28;20099;-78
2022/07/25 02:10:37;;;;;;;6.97;4.65;;;;;;;15.31;55.15;98680.56;5092249;28;20027;-79
2022/07/25 02:13:03;;;;;;;8.00;4.93;;;;;;;15.25;55.53;98677.16;5091873;28;20023;-78
2022/07/25 02:15:28;;;;;;;6.28;4.47;;;;;;;15.20;55.22;98677.31;5092136;28;20107;-77
2022/07/25 02:17:54;;;;;;;5.68;4.35;;;;;;;15.15;55.32;98681.03;5092361;28;20093;-80
2022/07/25 02:20:19;;;;;;;6.68;4.65;;;;;;;15.14;55.66;98679.41;5091090;28;20046;-79
2022/07/25 02:22:46;;;;;;;6.60;4.72;;;;;;;15.06;55.73;98680.19;5091653;28;20016;-78
2022/07/25 02:25:11;;;;;;;7.20;4.70;;;;;;;15.00;55.53;98685.06;5091546;28;20100;-77
2022/07/25 02:27:37;;;;;;;10.30;4.85;;;;;;;14.98;55.75;98678.22;5073750;28;20111;-78
2022/07/25 02:30:04;;;;;;;5.43;4.13;;;;;;;14.94;55.85;98686.34;5091666;28;20103;-74
2022/07/25 02:32:29;;;;;;;7.50;4.40;;;;;;;14.90;56.22;98685.34;5091648;28;20564;-74
2022/07/25 02:34:55;;;;;;;7.93;5.60;;;;;;;14.85;56.14;98686.31;5092096;28;20028;-75
2022/07/25 02:37:20;;;;;;;8.88;5.55;;;;;;;14.84;56.02;98684.69;5092010;28;20021;-75
2022/07/25 02:39:46;;;;;;;8.75;5.35;;;;;;;14.83;56.36;98691.34;5091578;28;20030;-74
2022/07/25 02:42:11;;;;;;;9.40;6.65;;;;;;;14.82;56.51;98688.88;5091649;28;20024;-75
2022/07/25 02:44:37;;;;;;;6.95;5.65;;;;;;;14.78;56.43;98690.66;5091326;28;20089;-74
2022/07/25 02:47:02;;;;;;;7.38;5.95;;;;;;;14.76;56.38;98690.16;5091777;28;20035;-76
2022/07/25 02:49:27;;;;;;;7.15;4.97;;;;;;;14.70;56.61;98692.25;5092100;28;20055;-75
2022/07/25 02:51:53;;;;;;;6.00;4.88;;;;;;;14.66;56.32;98694.81;5091298;28;20452;-75
2022/07/25 02:54:18;;;;;;;6.15;5.20;;;;;;;14.63;56.57;98703.72;5073235;28;20035;-75
2022/07/25 02:56:44;;;;;;;8.85;4.82;;;;;;;14.60;56.92;98698.84;5091286;28;20024;-75
2022/07/25 02:59:09;;;;;;;6.78;5.00;;;;;;;14.58;56.85;98695.59;5090869;28;20452;-75
2022/07/25 03:01:35;;;;;;;7.28;5.53;;;;;;;14.57;57.18;98696.72;5091061;28;20035;-75
2022/07/25 03:04:00;;;;;;;10.45;5.88;;;;;;;14.56;56.86;98695.88;5091155;28;20032;-75
2022/07/25 03:06:26;;;;;;;9.68;5.57;;;;;;;14.55;56.93;98690.69;5089630;28;20465;-75
2022/07/25 03:08:51;;;;;;;8.18;5.80;;;;;;;14.54;57.44;98692.63;5089831;28;20660;-75
2022/07/25 03:11:17;;;;;;;7.78;5.43;;;;;;;14.55;57.25;98694.25;5089068;28;20020;-75
2022/07/25 03:13:42;;;;;;;8.00;5.18;;;;;;;14.54;57.30;98692.63;5089388;28;20031;-76
2022/07/25 03:16:08;;;;;;;7.00;5.55;;;;;;;14.53;57.75;98691.00;5089497;28;20027;-75
2022/07/25 03:18:34;;;;;;;6.75;5.72;;;;;;;14.53;57.75;98676.41;5089576;28;20024;-75
2022/07/25 03:20:59;;;;;;;8.52;5.80;;;;;;;14.55;57.89;98669.41;5090432;28;20052;-75
2022/07/25 03:23:26;;;;;;;7.97;5.28;;;;;;;14.54;58.00;98669.75;5091222;28;20020;-75
2022/07/25 03:25:52;;;;;;;8.45;5.25;;;;;;;14.52;58.15;98674.78;5091754;28;20039;-76
2022/07/25 03:28:17;;;;;;;7.72;5.78;;;;;;;14.51;58.25;98671.19;5090897;28;20024;-75
2022/07/25 03:30:43;;;;;;;7.75;5.53;;;;;;;14.55;58.45;98671.38;5090587;28;20107;-76
2022/07/25 03:33:09;;;;;;;8.13;5.68;;;;;;;14.61;58.47;98667.34;5091999;28;20099;-75
2022/07/25 03:35:36;;;;;;;6.60;5.50;;;;;;;14.66;58.24;98669.97;5091658;28;20020;-75
2022/07/25 03:38:02;;;;;;;9.52;5.68;;;;;;;14.69;58.25;98663.03;5092056;28;20036;-75
2022/07/25 03:40:27;;;;;;;9.70;5.47;;;;;;;14.74;58.64;98665.66;5091971;28;20385;-75
2022/07/25 03:42:53;;;;;;;8.88;6.15;;;;;;;14.77;58.48;98669.69;5092095;28;21448;-75
2022/07/25 03:45:18;;;;;;;10.23;5.70;;;;;;;14.79;58.78;98665.50;5091718;28;20046;-75
2022/07/25 03:47:44;;;;;;;8.10;5.93;;;;;;;14.82;58.75;98653.00;5091917;28;20491;-75
2022/07/25 03:50:09;;;;;;;11.52;5.40;;;;;;;14.87;58.54;98661.97;5091945;28;20052;-75
2022/07/25 03:52:37;;;;;;;6.07;5.10;;;;;;;14.89;58.46;98667.94;5091270;28;20024;-75
2022/07/25 03:55:03;;;;;;;8.25;5.30;;;;;;;14.96;58.52;98669.44;5091504;28;20054;-75
2022/07/25 03:57:29;;;;;;;10.05;5.45;;;;;;;14.99;58.82;98668.81;5073682;28;20030;-75
2022/07/25 03:59:54;;;;;;;8.70;5.88;;;;;;;15.02;58.83;98666.22;5091468;28;20028;-75
2022/07/25 04:02:20;;;;;;;9.57;5.75;;;;;;;15.06;58.89;98674.69;5072680;28;20031;-75
2022/07/25 04:04:45;;;;;;;11.48;5.43;;;;;;;15.11;59.00;98666.25;5091331;28;20044;-76
2022/07/25 04:07:11;;;;;;;8.50;5.50;;;;;;;15.14;59.04;98665.59;5091552;28;20067;-75
2022/07/25 04:09:36;;;;;;;6.72;4.85;;;;;;;15.17;59.01;98673.25;5090890;28;20119;-76
2022/07/25 04:12:02;;;;;;;6.88;4.85;;;;;;;15.22;58.84;98666.75;5090819;28;20028;-75
2022/07/25 04:14:27;;;;;;;7.35;4.47;;;;;;;15.26;59.17;98664.97;5090826;28;20464;-77
2022/07/25 04:16:54;;;;;;;7.45;5.20;;;;;;;15.32;58.96;98665.63;5091083;28;20465;-76
2022/07/25 04:19:19;;;;;;;6.30;4.72;;;;;;;15.38;58.87;98669.06;5091078;28;20036;-77
2022/07/25 04:21:45;;;;;;;6.30;4.45;;;;;;;15.45;58.83;98667.44;5090472;28;20454;-77
2022/07/25 04:24:10;;;;;;;9.02;4.90;;;;;;;15.51;59.02;98670.84;5090902;28;20447;-76
2022/07/25 04:26:36;;;;;;;7.15;4.78;;;;;;;15.58;59.14;98673.94;5090945;28;20062;-77
2022/07/25 04:29:02;;;;;;;6.97;4.45;;;;;;;15.66;58.85;98674.28;5091053;28;20027;-76
2022/07/25 04:31:28;;;;;;;7.60;4.97;;;;;;;15.72;58.65;98671.00;5090547;28;20036;-76
2022/07/25 04:33:53;;;;;;;9.70;4.80;;;;;;;15.81;58.96;98671.03;5090392;28;20479;-76
2022/07/25 04:36:18;;;;;;;7.65;4.35;;;;;;;15.89;59.04;98673.00;5091017;28;20453;-77
2022/07/25 04:38:44;;;;;;;8.23;4.45;;;;;;;15.96;59.01;98666.97;5090975;28;20415;-77
2022/07/25 04:41:10;;;;;;;5.57;4.13;;;;;;;16.04;58.67;98666.16;5090845;28;20040;-77
2022/07/25 04:43:36;;;;;;;7.88;4.20;;;;;;;16.16;58.72;98661.88;5090644;28;20024;-77
2022/07/25 04:46:01;;;;;;;7.78;4.15;;;;;;;16.25;58.36;98667.44;5091029;28;20020;-77
2022/07/25 04:48:27;;;;;;;5.80;3.85;;;;;;;16.32;58.37;98671.31;5090759;28;20031;-77
2022/07/25 04:50:52;;;;;;;6.65;3.92;;;;;;;16.40;58.20;98669.66;5090723;28;20153;-77
2022/07/25 04:53:18;;;;;;;7.63;3.88;;;;;;;16.50;58.53;98668.50;5090498;28;20047;-76
2022/07/25 04:55:43;;;;;;;6.80;3.92;;;;;;;16.57;58.32;98660.47;5090181;28;20476;-77
2022/07/25 04:58:09;;;;;;;8.43;4.15;;;;;;;16.66;58.54;98663.22;5072733;28;20456;-77
2022/07/25 05:00:34;;;;;;;7.72;3.88;;;;;;;16.75;58.07;98657.63;5089672;28;20797;-76
2022/07/25 05:02:59;;;;;;;6.55;3.88;;;;;;;16.85;58.30;98656.44;5090118;28;20427;-78
2022/07/25 05:05:25;;;;;;;6.60;3.75;;;;;;;16.95;57.91;98654.09;5090102;28;20016;-76
2022/07/25 05:07:58;;;;;;;5.68;3.75;;;;;;;17.03;58.34;98651.66;5090608;28;20357;-77
2022/07/25 05:10:28;;;;;;;6.50;3.80;;;;;;;17.11;58.01;98648.03;5090167;28;20022;-77
2022/07/25 05:12:54;;;;;;;5.47;3.55;;;;;;;17.20;57.78;98650.75;5090054;28;20384;-77
2022/07/25 05:15:20;;;;;;;4.95;3.67;;;;;;;17.27;57.33;98651.03;5090207;28;20030;-77
2022/07/25 05:17:45;;;;;;;5.72;3.30;;;;;;;17.35;57.29;98641.84;5090306;28;20520;-77
2022/07/25 05:20:12;;;;;;;7.72;3.40;;;;;;;17.41;57.53;98651.59;5090176;28;20085;-77
2022/07/25 05:22:37;;;;;;;6.93;3.10;;;;;;;17.49;57.11;98646.31;5092980;28;20460;-76
2022/07/25 05:25:06;;;;;;;4.47;3.30;;;;;;;17.56;57.22;98641.03;5094112;28;20081;-77
2022/07/25 05:27:31;;;;;;;6.72;3.10;;;;;;;17.62;56.78;98636.09;5094100;28;20365;-77
2022/07/25 05:29:57;;;;;;;5.53;2.92;;;;;;;17.68;56.99;98635.53;5094102;28;20089;-77
2022/07/25 05:32:22;;;;;;;8.20;3.42;;;;;;;17.74;56.69;98636.13;5093655;28;20028;-76
2022/07/25 05:34:47;;;;;;;6.38;3.45;;;;;;;17.80;56.39;98632.00;5093417;28;20028;-75
2022/07/25 05:37:13;;;;;;;5.43;3.00;;;;;;;17.88;56.32;98630.31;5094115;28;20028;-76
2022/07/25 05:39:39;;;;;;;5.38;3.17;;;;;;;17.95;56.19;98621.44;5093951;28;20466;-77
2022/07/25 05:42:06;;;;;;;6.78;3.13;;;;;;;18.02;56.09;98613.41;5093348;28;20116;-77
2022/07/25 05:44:31;;;;;;;4.20;2.90;;;;;;;18.10;55.94;98620.84;5093850;28;20028;-77
2022/07/25 05:46:57;;;;;;;5.43;3.17;;;;;;;18.18;55.65;98621.06;5075641;28;20024;-77
2022/07/25 05:49:22;;;;;;;5.40;3.22;;;;;;;18.23;55.31;98613.34;5093285;28;20479;-78
2022/07/25 05:51:48;;;;;;;4.78;3.20;;;;;;;18.33;55.17;98617.63;5093599;28;20024;-77
2022/07/25 05:54:13;;;;;;;5.80;2.80;;;;;;;18.41;55.04;98619.50;5093547;28;20032;-78
2022/07/25 05:56:39;;;;;;;5.15;2.65;;;;;;;18.50;54.80;98616.63;5093685;28;20028;-78
2022/07/25 05:59:04;;;;;;;5.55;3.05;;;;;;;18.58;54.47;98620.44;5093694;28;20027;-78
2022/07/25 06:01:29;;;;;;;3.15;2.25;;;;;;;18.67;54.48;98623.91;5075315;28;20028;-78
2022/07/25 06:03:55;;;;;;;4.55;2.50;;;;;;;18.78;54.19;98617.91;5093388;28;20028;-78
2022/07/25 06:06:20;;;;;;;7.18;2.88;;;;;;;18.88;53.79;98617.44;5093017;28;20020;-77
2022/07/25 06:08:46;;;;;;;5.45;2.60;;;;;;;18.96;53.52;98616.53;5093766;28;20039;-77
2022/07/25 06:11:11;;;;;;;5.97;2.67;;;;;;;19.04;53.22;98610.03;5093421;28;20044;-77
2022/07/25 06:13:37;;;;;;;5.35;2.40;;;;;;;19.16;52.98;98606.41;5092956;28;20012;-77
2022/07/25 06:16:02;;;;;;;4.40;2.50;;;;;;;19.27;52.91;98615.09;5093310;28;20017;-78
2022/07/25 06:18:28;;;;;;;3.33;2.22;;;;;;;19.40;52.73;98612.28;5093446;28;20499;-78
2022/07/25 06:20:53;;;;;;;3.78;2.47;;;;;;;19.49;52.53;98615.72;5092879;28;20127;-77
2022/07/25 06:23:19;;;;;;;4.95;2.47;;;;;;;19.60;51.84;98607.69;5093548;28;20059;-78
2022/07/25 06:25:45;;;;;;;2.80;2.60;;;;;;;19.69;51.23;98602.00;5093084;28;20024;-76
2022/07/25 06:28:13;;;;;;;4.68;2.40;;;;;;;19.78;51.33;98605.41;5093066;28;20024;-77
2022/07/25 06:30:45;;;;;;;4.25;2.40;;;;;;;19.90;51.13;98607.41;5092703;28;20023;-78
2022/07/25 06:33:11;;;;;;;3.53;2.38;;;;;;;20.00;50.83;98600.50;5092190;28;20476;-77
2022/07/25 06:35:37;;;;;;;4.38;2.55;;;;;;;20.09;50.39;98609.50;5092262;28;20104;-78
2022/07/25 06:38:03;;;;;;;4.78;2.35;;;;;;;20.16;50.21;98604.13;5092688;28;20071;-78
2022/07/25 06:40:29;;;;;;;4.10;2.60;;;;;;;20.25;50.11;98600.34;5092559;28;20038;-78
2022/07/25 06:42:54;;;;;;;3.90;2.70;;;;;;;20.35;49.87;98594.25;5092419;28;20028;-78
2022/07/25 06:45:20;;;;;;;5.65;2.45;;;;;;;20.47;49.82;98598.91;5068932;28;20040;-77
2022/07/25 06:47:45;;;;;;;4.85;2.40;;;;;;;20.53;49.45;98589.94;5091009;28;20028;-75
2022/07/25 06:50:15;;;;;;;3.13;2.25;;;;;;;20.61;49.35;98596.50;5092176;28;20099;-76
2022/07/25 06:52:41;;;;;;;2.95;2.00;;;;;;;20.67;49.03;98595.06;5092212;28;20055;-76
2022/07/25 06:55:08;;;;;;;5.90;1.95;;;;;;;20.74;48.59;98593.63;5092024;28;20028;-75
2022/07/25 06:57:35;;;;;;;3.05;2.00;;;;;;;20.82;48.57;98596.25;5092070;28;20472;-76
2022/07/25 07:00:04;;;;;;;3.67;2.00;;;;;;;20.90;48.66;98588.06;5091533;28;20028;-75
2022/07/25 07:02:30;;;;;;;3.45;2.15;;;;;;;20.98;48.52;98581.47;5087601;28;20046;-74
2022/07/25 07:04:55;;;;;;;4.95;2.42;;;;;;;21.08;48.25;98580.09;5072419;28;20057;-77
2022/07/25 07:07:21;;;;;;;2.30;2.05;;;;;;;21.15;47.92;98569.09;5091374;28;20028;-77
2022/07/25 07:09:46;;;;;;;2.92;2.17;;;;;;;21.22;48.20;98574.81;5091205;28;20395;-76
2022/07/25 07:12:11;;;;;;;4.28;2.30;;;;;;;21.33;48.26;98569.47;5090586;28;20393;-76
2022/07/25 07:14:37;;;;;;;5.10;2.08;;;;;;;21.49;48.23;98565.81;5090824;28;20032;-75
2022/07/25 07:17:04;;;;;;;4.00;2.33;;;;;;;21.65;48.17;98572.16;5089163;28;20028;-77
2022/07/25 07:19:29;;;;;;;3.60;2.20;;;;;;;21.75;47.75;98559.56;5090113;28;20123;-76
2022/07/25 07:21:55;;;;;;;3.65;2.50;;;;;;;21.85;47.29;98560.94;5088433;28;20145;-77
2022/07/25 07:24:20;;;;;;;4.72;2.45;;;;;;;21.92;47.33;98555.50;5091082;28;20028;-77
2022/07/25 07:26:45;;;;;;;2.80;2.00;;;;;;;22.00;47.32;98557.25;5090821;28;20419;-77
2022/07/25 07:29:12;;;;;;;2.28;1.90;;;;;;;22.10;46.79;98555.03;5091163;28;20035;-77
2022/07/25 07:31:37;;;;;;;2.85;2.28;;;;;;;22.18;46.62;98555.97;5090044;28;20032;-76
2022/07/25 07:34:03;;;;;;;4.80;2.20;;;;;;;22.25;46.66;98568.06;5088129;28;20076;-78
2022/07/25 07:36:28;;;;;;;3.55;2.10;;;;;;;22.35;46.68;98558.28;5090300;28;20028;-76
2022/07/25 07:38:54;;;;;;;3.08;2.10;;;;;;;22.46;46.41;98558.47;5090741;28;20165;-78
2022/07/25 07:41:20;;;;;;;4.57;2.53;;;;;;;22.57;46.67;98555.84;5090581;28;20028;-76
2022/07/25 07:43:46;;;;;;;3.47;2.30;;;;;;;22.70;46.57;98553.66;5089953;28;20054;-76
2022/07/25 07:46:11;;;;;;;4.80;2.67;;;;;;;22.79;46.19;98557.00;5085172;28;20028;-76
2022/07/25 07:48:37;;;;;;;3.08;2.35;;;;;;;22.90;45.90;98548.75;5088505;28;20107;-77
2022/07/25 07:51:02;;;;;;;5.47;1.88;;;;;;;22.98;45.59;98552.47;5089280;28;20107;-77
2022/07/25 07:56:13;;;;;;;2.72;2.00;;;;;;;23.18;44.57;98550.34;5089467;28;20078;-76
2022/07/25 07:58:39;;;;;;;2.80;1.70;;;;;;;23.26;43.83;98546.47;5089969;28;20065;-77
2022/07/25 08:01:05;;;;;;;2.50;1.80;;;;;;;23.38;44.25;98544.63;5089203;28;20027;-76
2022/07/25 08:03:31;;;;;;;1.88;1.60;;;;;;;23.46;43.37;98549.94;5089831;28;20039;-76
2022/07/25 08:05:56;;;;;;;3.22;1.85;;;;;;;23.55;43.01;98544.06;5089346;28;20036;-74
2022/07/25 08:08:22;;;;;;;2.17;1.95;;;;;;;23.62;42.54;98538.53;5090324;28;20081;-77
2022/07/25 08:10:48;;;;;;;1.63;1.52;;;;;;;23.71;42.34;98537.41;5090067;28;20446;-77
2022/07/25 08:13:20;;;;;;;3.35;1.60;;;;;;;23.83;41.51;98541.97;5089639;28;20032;-77
2022/07/25 08:15:50;;;;;;;1.50;1.40;;;;;;;23.89;41.77;98534.81;5089490;28;20032;-76
2022/07/25 08:18:15;;;;;;;1.60;1.50;;;;;;;23.98;40.31;98534.50;5089098;28;20040;-76
2022/07/25 08:20:41;;;;;;;3.30;1.20;;;;;;;24.14;40.92;98537.88;5088808;28;20059;-74
2022/07/25 08:23:09;;;;;;;3.22;1.77;;;;;;;24.27;40.87;98538.38;5089790;28;20032;-76
2022/07/25 08:25:37;;;;;;;2.00;1.52;;;;;;;24.38;41.00;98538.50;5089428;28;20032;-76
2022/07/25 08:28:05;;;;;;;2.15;1.60;;;;;;;24.50;40.99;98534.59;5071206;28;20028;-77
2022/07/25 08:30:31;;;;;;;1.58;1.38;;;;;;;24.59;40.26;98535.06;5088978;28;20024;-78
2022/07/25 08:33:02;;;;;;;1.95;1.17;;;;;;;24.64;39.94;98529.09;5089369;28;20024;-78
2022/07/25 08:35:29;;;;;;;2.72;1.50;;;;;;;24.71;39.76;98533.94;5088907;28;20028;-76
2022/07/25 08:37:55;;;;;;;3.35;1.95;;;;;;;24.86;39.69;98523.66;5088805;28;20028;-79
2022/07/25 08:40:22;;;;;;;2.58;1.50;;;;;;;25.00;39.38;98533.34;5087208;28;20433;-78
2022/07/25 08:42:49;;;;;;;1.70;1.45;;;;;;;25.03;38.82;98522.13;5087357;28;20518;-79
2022/07/25 08:45:16;;;;;;;2.10;1.52;;;;;;;25.04;38.50;98520.94;5084315;28;20069;-77
2022/07/25 08:47:43;;;;;;;4.22;1.50;;;;;;;25.05;38.03;98524.56;5088176;28;20123;-83
2022/07/25 08:50:12;;;;;;;2.40;1.65;;;;;;;25.13;38.17;98520.56;5088539;28;20396;-78
2022/07/25 08:52:38;;;;;;;3.63;1.48;;;;;;;25.32;38.57;98511.03;5087923;28;20492;-82
2022/07/25 08:55:06;;;;;;;2.30;1.60;;;;;;;25.45;38.12;98517.16;5088502;28;20028;-77
2022/07/25 08:57:32;;;;;;;1.50;1.23;;;;;;;25.48;37.62;98519.16;5089920;28;20031;-77
2022/07/25 08:59:58;;;;;;;4.30;1.60;;;;;;;25.46;37.45;98512.34;5091155;28;20040;-77
2022/07/25 09:02:27;;;;;;;1.85;1.40;;;;;;;25.47;37.33;98500.72;5073190;28;20043;-78
2022/07/25 09:04:57;;;;;;;2.38;1.60;;;;;;;25.56;36.78;98503.94;5092341;28;20176;-77
2022/07/25 09:07:36;;;;;;;1.50;1.30;;;;;;;25.74;37.46;98505.19;5091966;28;20097;-76
2022/07/25 09:10:26;;;;;;;2.05;1.42;;;;;;;25.81;36.80;98494.78;5092849;28;20024;-76
2022/07/25 09:12:55;;;;;;;2.13;1.13;;;;;;;25.83;36.02;98486.75;5092073;28;20028;-76
2022/07/25 09:15:24;;;;;;;2.15;1.50;;;;;;;25.90;36.76;98496.38;5092158;28;20075;-75
2022/07/25 09:17:50;;;;;;;2.05;1.30;;;;;;;26.02;36.54;98493.19;5092317;28;20494;-74
2022/07/25 09:20:16;;;;;;;2.53;1.30;;;;;;;26.12;36.22;98495.22;5087619;28;20052;-74
2022/07/25 09:22:43;;;;;;;1.90;1.40;;;;;;;26.24;35.66;98491.22;5091320;28;20408;-78
2022/07/25 09:25:21;;;;;;;2.80;1.50;;;;;;;26.26;35.17;98488.03;5092237;28;20087;-80
2022/07/25 09:27:46;;;;;;;1.77;1.38;;;;;;;26.32;36.13;98494.81;5091038;28;20028;-77
2022/07/25 09:30:13;;;;;;;1.27;1.10;;;;;;;26.32;35.15;98491.22;5090885;28;20070;-78
2022/07/25 09:32:38;;;;;;;2.30;1.17;;;;;;;26.30;34.26;98486.00;5089524;28;20062;-77
2022/07/25 09:35:04;;;;;;;1.20;1.08;;;;;;;26.29;34.61;98484.38;5090114;28;20040;-82
2022/07/25 09:37:30;;;;;;;2.17;1.33;;;;;;;26.29;34.58;98482.38;5090943;28;20445;-73
2022/07/25 09:39:55;;;;;;;2.55;1.15;;;;;;;26.33;34.53;98485.19;5091684;28;20446;-74
2022/07/25 09:42:24;;;;;;;1.10;1.00;;;;;;;26.41;34.88;98486.78;5090509;28;20036;-81
2022/07/25 09:45:03;;;;;;;1.88;1.13;;;;;;;26.47;34.80;98478.78;5089715;28;20028;-79
2022/07/25 09:47:31;;;;;;;1.23;1.10;;;;;;;26.51;34.64;98478.75;5089432;28;20034;-79
2022/07/25 09:49:56;;;;;;;2.25;1.17;;;;;;;26.53;34.59;98474.31;5090625;28;20024;-78
2022/07/25 09:52:22;;;;;;;2.78;1.40;;;;;;;26.52;33.74;98469.91;5089999;28;20043;-78
2022/07/25 09:54:48;;;;;;;2.70;1.38;;;;;;;26.49;33.80;98469.91;5092076;28;20037;-73
2022/07/25 09:57:14;;;;;;;3.20;1.40;;;;;;;26.54;34.58;98470.31;5093376;28;20062;-78
2022/07/25 09:59:39;;;;;;;1.80;1.35;;;;;;;26.70;34.21;98457.81;5090646;28;20052;-79
2022/07/25 10:02:08;;;;;;;2.88;1.48;;;;;;;26.81;34.52;98463.41;5090366;28;20024;-75
2022/07/25 10:04:44;;;;;;;2.38;1.35;;;;;;;26.92;33.77;98458.59;5089694;28;20036;-78
2022/07/25 10:07:13;;;;;;;1.60;1.20;;;;;;;26.94;33.33;98456.19;5087767;28;20103;-77
2022/07/25 10:09:48;;;;;;;1.55;1.33;;;;;;;26.90;33.09;98449.75;5089384;28;20120;-79
2022/07/25 10:12:18;;;;;;;3.67;1.30;;;;;;;26.87;32.79;98450.56;5090722;28;20116;-78
2022/07/25 10:15:11;;;;;;;1.85;1.30;;;;;;;26.85;33.20;98445.38;5090564;28;20031;-78
2022/07/25 10:17:39;;;;;;;2.00;1.35;;;;;;;26.97;33.24;98452.56;5089080;28;20506;-76
2022/07/25 10:20:07;;;;;;;1.85;1.45;;;;;;;27.03;32.95;98453.75;5090340;28;20111;-80
2022/07/25 10:22:44;;;;;;;2.00;1.17;;;;;;;27.13;32.50;98440.00;5090888;28;20101;-73
2022/07/25 10:25:15;;;;;;;2.22;1.30;;;;;;;27.18;32.48;98448.03;5089496;28;20028;-78
2022/07/25 10:27:47;;;;;;;2.97;1.20;;;;;;;27.22;32.63;98448.03;5091432;28;20024;-77
2022/07/25 10:30:26;;;;;;;1.27;0.90;;;;;;;27.27;32.22;98448.41;5090605;28;20036;-80
2022/07/25 10:32:57;;;;;;;1.23;0.95;;;;;;;27.29;32.11;98437.53;5089670;28;20093;-75
2022/07/25 10:35:24;;;;;;;1.70;1.00;;;;;;;27.33;30.09;98431.84;5091059;28;20028;-77
2022/07/25 10:37:52;;;;;;;3.17;1.13;;;;;;;27.39;31.06;98438.66;5087845;28;20020;-80
2022/07/25 10:40:32;;;;;;;3.05;0.98;;;;;;;27.48;30.82;98432.63;5090928;28;20036;-76
2022/07/25 10:43:21;;;;;;;0.95;0.90;;;;;;;27.54;31.13;98433.78;5089321;28;20097;-77
2022/07/25 10:45:50;;;;;;;1.67;1.00;;;;;;;27.66;30.61;98437.34;5075433;28;20442;-77
2022/07/25 10:48:27;;;;;;;1.30;1.20;;;;;;;27.71;30.38;98426.44;5089523;28;20032;-77
2022/07/25 10:51:12;;;;;;;1.00;0.90;;;;;;;27.79;29.33;98432.81;5087032;28;20051;-78
2022/07/25 10:53:45;;;;;;;1.73;1.08;;;;;;;27.82;29.21;98417.09;5087043;28;20028;-74
2022/07/25 10:56:15;;;;;;;3.00;1.50;;;;;;;27.85;30.13;98425.53;5069907;28;20057;-73
2022/07/25 10:58:59;;;;;;;4.28;1.48;;;;;;;27.91;30.33;98415.44;5087132;28;20400;-77
2022/07/25 11:01:29;;;;;;;1.60;1.17;;;;;;;27.98;30.37;98413.75;5089139;28;20058;-81
2022/07/25 11:04:00;;;;;;;2.17;1.30;;;;;;;28.03;30.26;98400.03;5088784;28;20024;-80
2022/07/25 11:06:36;;;;;;;2.17;1.27;;;;;;;28.08;29.68;98393.13;5089671;28;20032;-78
2022/07/25 11:09:26;;;;;;;2.67;1.40;;;;;;;28.08;29.79;98382.66;5089591;28;20020;-75
2022/07/25 11:11:57;;;;;;;2.35;1.52;;;;;;;28.22;29.84;98380.94;5090702;28;20027;-77
2022/07/25 11:14:32;;;;;;;4.35;1.30;;;;;;;28.44;30.55;98387.16;5088438;28;20103;-78
2022/07/25 11:17:29;;;;;;;2.70;1.30;;;;;;;28.60;29.63;98371.69;5089623;28;20036;-76
2022/07/25 11:20:00;;;;;;;1.80;1.42;;;;;;;28.75;30.22;98380.75;5087601;28;20058;-78
2022/07/25 11:22:26;;;;;;;1.30;1.20;;;;;;;28.81;30.09;98374.25;5089377;28;20400;-80
2022/07/25 11:24:52;;;;;;;1.80;1.40;;;;;;;28.90;30.07;98376.59;5088411;28;20109;-80
2022/07/25 11:27:26;;;;;;;3.50;2.80;;;;;;;28.95;28.58;98366.84;5089461;28;20449;-78
2022/07/25 11:29:53;;;;;;;2.13;1.30;;;;;;;28.91;27.58;98360.44;5089116;28;20024;-75
2022/07/25 11:32:19;;;;;;;3.75;1.90;;;;;;;28.86;27.89;98370.19;5089059;28;20062;-76
2022/07/25 11:34:51;;;;;;;3.70;3.10;;;;;;;28.85;28.23;98362.13;5089607;28;20064;-75
2022/07/25 11:37:18;;;;;;;2.95;1.75;;;;;;;28.87;28.74;98354.84;5087091;28;20028;-74
2022/07/25 11:39:45;;;;;;;4.20;1.10;;;;;;;28.98;28.57;98349.06;5089096;28;20077;-75